Dixie, WV (25059)

9:23 AM EST on February 11, 2016 (GMT -0500)
Bonnie | | Change Station
CLOSE
Current Station
Personal Weather Station
Location: Gauley Bridge, WV
Elevation: 807 ft
Nearby Weather Stations

Elev 807 ft 38.17 °N, 81.19 °W | Updated 35 seconds ago

Mostly Cloudy
Mostly Cloudy
19.2 °F
Feels Like 19 °F
N
2.7
Wind Variable Wind from East

Today
High -- | Low -- °F
--% Chance of Precip.
Yesterday
High -- | Low -- °F
Precip. -- in
Pressure 30.28 in
Visibility 10.0 miles
Clouds Scattered Clouds 3700 ft
Scattered Clouds 11000 ft
Windchill 19 °F
Dew Point 9 °F
Humidity 64%
Rainfall 0.00 in
Snow Depth Not available.
7:20 AM 5:58 PM
Waxing Crescent, 12% visible
METAR KCRW 111354Z 26005KT 10SM SCT037 SCT110 M08/M16 A3023 RMK AO2 SLP252 T10831156
Pressure 30.28 in
Visibility 10.0 miles
Clouds Scattered Clouds 3700 ft
Scattered Clouds 11000 ft
Windchill 19 °F
Dew Point 9 °F
Humidity 64%
Rainfall 0.00 in
Snow Depth Not available.
7:20 AM 5:58 PM
Waxing Crescent, 12% visible
METAR KCRW 111354Z 26005KT 10SM SCT037 SCT110 M08/M16 A3023 RMK AO2 SLP252 T10831156

10-Day Weather Forecast

Almanac

Astronomy

Feb. 11, 2016 Rise Set
Actual Time
Civil Twilight
Nautical Twilight
Astronomical Twilight
Moon
Length of Visible Light
Length of Day
Tomorrow will be .
, % of the Moon is Illuminated

Today's Extremes

State Highs State Lows

Community

WunderPhotos

Upload Photos

1,892,048 photos uploaded!

WunderBlog® & News

Nearby

Air Quality

  Air Quality AQ Index Pollutant
Not available.

Snow Depth

Station Depth Elevation

Earthquake Activity

City Distance Mag. Time & Date
Minimum magnitude displayed is 2.5.

Coastal Water Temperatures

Place Temperature

Stations

Nearby Weather Stations

Station Location Temp. Windchill Dew Point Humidity Wind Precip. Elev Updated Type
                   

Watches & Warnings

There are currently no watches in effect.